Time;durP1;ratioP1;P1;durP2;ratioP2;P2;SDS_P1;SDS_P2;PMS_P1;PMS_P2;Temp;Humidity;BMP_temperature;BMP_pressure;BME280_temperature;BME280_humidity;BME280_pressure;Samples;Min_cycle;Max_cycle;Signal;HPM_P1;HPM_P2
2022/04/13 00:01:27;;;;;;;9.57;1.90;;;12.10;99.90;;;;;;5068417;28;20033;-78
2022/04/13 00:03:53;;;;;;;8.07;2.65;;;12.20;99.90;;;;;;5068474;28;20021;-78
2022/04/13 00:06:18;;;;;;;4.57;2.45;;;12.10;99.90;;;;;;5050167;28;20029;-78
2022/04/13 00:08:44;;;;;;;4.03;2.03;;;12.10;99.90;;;;;;5050054;28;20092;-78
2022/04/13 00:11:10;;;;;;;4.95;2.70;;;12.10;99.90;;;;;;5068000;28;20037;-77
2022/04/13 00:13:36;;;;;;;4.38;2.38;;;12.10;99.90;;;;;;5042314;28;20473;-77
2022/04/13 00:16:05;;;;;;;3.10;1.83;;;12.10;99.90;;;;;;5030361;28;20045;-79
2022/04/13 00:18:30;;;;;;;9.23;2.50;;;12.10;99.90;;;;;;5048428;28;20083;-78
2022/04/13 00:20:57;;;;;;;5.97;2.45;;;12.10;99.90;;;;;;5029824;28;20049;-78
2022/04/13 00:23:22;;;;;;;4.53;2.08;;;12.10;99.90;;;;;;5048184;28;20068;-79
2022/04/13 00:25:48;;;;;;;3.75;2.00;;;12.10;99.90;;;;;;5048246;28;20033;-77
2022/04/13 00:28:14;;;;;;;3.78;2.28;;;12.10;99.90;;;;;;5049782;28;20056;-78
2022/04/13 00:30:40;;;;;;;6.63;1.73;;;12.10;99.90;;;;;;5068242;28;20460;-78
2022/04/13 00:33:05;;;;;;;4.60;2.50;;;12.10;99.90;;;;;;5067749;28;20025;-79
2022/04/13 00:35:31;;;;;;;4.07;2.28;;;12.10;99.90;;;;;;5067730;28;20025;-79
2022/04/13 00:38:01;;;;;;;5.40;2.95;;;12.10;99.90;;;;;;5068315;28;20024;-78
2022/04/13 00:40:26;;;;;;;3.85;2.45;;;12.10;99.90;;;;;;5049690;28;20033;-78
2022/04/13 00:42:52;;;;;;;4.85;2.20;;;12.10;99.90;;;;;;5049939;28;20031;-79
2022/04/13 00:45:18;;;;;;;5.00;2.00;;;12.10;99.90;;;;;;5068166;28;20098;-78
2022/04/13 00:47:46;;;;;;;9.80;2.63;;;12.00;99.90;;;;;;5067649;28;20583;-77
2022/04/13 00:50:11;;;;;;;4.82;2.70;;;12.00;99.90;;;;;;5049114;28;20047;-77
2022/04/13 00:52:40;;;;;;;4.47;2.13;;;12.00;99.90;;;;;;5067900;28;20036;-77
2022/04/13 00:55:08;;;;;;;8.70;2.45;;;12.00;99.90;;;;;;5049045;28;20029;-78
2022/04/13 00:57:36;;;;;;;4.45;2.08;;;11.90;99.90;;;;;;5049207;28;20028;-78
2022/04/13 01:00:04;;;;;;;7.45;2.67;;;12.00;99.90;;;;;;5067685;28;20025;-78
2022/04/13 01:02:31;;;;;;;4.82;2.47;;;11.90;99.90;;;;;;5049223;28;20096;-78
2022/04/13 01:05:02;;;;;;;3.38;2.17;;;12.00;99.90;;;;;;5048868;28;20427;-78
2022/04/13 01:07:28;;;;;;;5.18;2.63;;;12.00;99.90;;;;;;5067236;28;20025;-79
2022/04/13 01:09:55;;;;;;;5.05;2.65;;;11.90;99.90;;;;;;5067196;28;20029;-78
2022/04/13 01:12:20;;;;;;;5.40;1.90;;;11.90;99.90;;;;;;5067416;28;20029;-78
2022/04/13 01:14:46;;;;;;;6.40;2.78;;;11.90;99.90;;;;;;5067580;28;20059;-78
2022/04/13 01:17:12;;;;;;;2.72;1.75;;;11.90;99.90;;;;;;5066926;28;20089;-78
2022/04/13 01:19:39;;;;;;;5.50;2.35;;;11.90;99.90;;;;;;5066705;28;20052;-77
2022/04/13 01:22:19;;;;;;;3.90;2.53;;;11.90;99.90;;;;;;5048925;28;20021;-78
2022/04/13 01:24:45;;;;;;;6.32;2.17;;;11.90;99.90;;;;;;5066620;28;20060;-78
2022/04/13 01:27:11;;;;;;;6.40;2.42;;;11.90;99.90;;;;;;5067051;28;20029;-77
2022/04/13 01:29:36;;;;;;;4.72;2.65;;;11.90;99.90;;;;;;5066332;28;20107;-77
2022/04/13 01:32:03;;;;;;;5.82;2.00;;;11.90;99.90;;;;;;5066325;28;20037;-78
2022/04/13 01:34:28;;;;;;;6.22;2.28;;;11.90;99.90;;;;;;5066753;28;20032;-78
2022/04/13 01:36:54;;;;;;;5.15;2.92;;;11.90;99.90;;;;;;5049128;28;20021;-78
2022/04/13 01:39:20;;;;;;;5.05;2.33;;;11.90;99.90;;;;;;5066803;28;20025;-77
2022/04/13 01:41:46;;;;;;;6.50;2.55;;;11.80;99.90;;;;;;5066908;28;20043;-77
2022/04/13 01:44:15;;;;;;;3.25;2.10;;;11.80;99.90;;;;;;5048044;28;20096;-77
2022/04/13 01:46:40;;;;;;;4.88;2.55;;;11.80;99.90;;;;;;5066424;28;20024;-78
2022/04/13 01:49:06;;;;;;;10.65;2.50;;;11.80;99.90;;;;;;5066568;28;20029;-77
2022/04/13 01:51:32;;;;;;;6.20;2.78;;;11.80;99.90;;;;;;5066089;28;20061;-76
2022/04/13 01:53:58;;;;;;;6.15;2.55;;;11.80;99.90;;;;;;5066830;28;20029;-76
2022/04/13 01:56:23;;;;;;;6.65;2.65;;;11.80;99.90;;;;;;5066707;28;20036;-76
2022/04/13 01:58:50;;;;;;;12.40;2.70;;;11.80;99.90;;;;;;5066459;28;20099;-78
2022/04/13 02:01:17;;;;;;;5.13;2.58;;;11.80;99.90;;;;;;5048114;28;20025;-78
2022/04/13 02:03:43;;;;;;;7.25;2.80;;;11.80;99.90;;;;;;5048057;28;20025;-78
2022/04/13 02:06:09;;;;;;;3.75;2.10;;;11.80;99.90;;;;;;5065717;28;20528;-77
2022/04/13 02:08:35;;;;;;;5.88;2.67;;;11.80;99.90;;;;;;5066215;28;20031;-77
2022/04/13 02:11:02;;;;;;;4.40;2.58;;;11.80;99.90;;;;;;5047625;28;20501;-77
2022/04/13 02:13:27;;;;;;;7.35;3.53;;;11.80;99.90;;;;;;5065608;28;20021;-77
2022/04/13 02:15:53;;;;;;;6.53;3.22;;;11.70;99.90;;;;;;5066592;28;20453;-78
2022/04/13 02:18:19;;;;;;;6.53;3.22;;;11.80;99.90;;;;;;5064512;28;20029;-77
2022/04/13 02:20:45;;;;;;;9.98;2.83;;;11.70;99.90;;;;;;5046940;28;20073;-78
2022/04/13 02:23:11;;;;;;;8.82;3.08;;;11.70;99.90;;;;;;5065633;28;20370;-76
2022/04/13 02:25:36;;;;;;;4.20;2.95;;;11.70;99.90;;;;;;5065947;28;20198;-76
2022/04/13 02:28:08;;;;;;;9.98;2.80;;;11.70;99.90;;;;;;5065471;28;20021;-76
2022/04/13 02:30:34;;;;;;;9.02;3.13;;;11.70;99.90;;;;;;5065901;28;20037;-77
2022/04/13 02:33:00;;;;;;;7.45;3.20;;;11.60;99.90;;;;;;5065630;28;20107;-76
2022/04/13 02:35:26;;;;;;;7.10;2.55;;;11.60;99.90;;;;;;5065176;28;20029;-78
2022/04/13 02:37:52;;;;;;;9.07;3.17;;;11.60;99.90;;;;;;5048142;28;20104;-77
2022/04/13 02:40:17;;;;;;;4.47;2.55;;;11.50;99.90;;;;;;5047765;28;20032;-76
2022/04/13 02:42:51;;;;;;;6.28;2.72;;;11.50;99.90;;;;;;5065315;28;20032;-79
2022/04/13 02:45:17;;;;;;;10.07;2.88;;;11.50;99.90;;;;;;5065687;28;20037;-78
2022/04/13 02:47:42;;;;;;;6.35;2.60;;;11.50;99.90;;;;;;5065261;28;20076;-78
2022/04/13 02:50:08;;;;;;;5.97;3.22;;;11.50;99.90;;;;;;5064909;28;20033;-77
2022/04/13 02:52:34;;;;;;;9.15;3.45;;;11.40;99.90;;;;;;5065265;28;20029;-79
2022/04/13 02:55:00;;;;;;;9.63;3.38;;;11.40;99.90;;;;;;5046720;28;20508;-77
2022/04/13 02:57:25;;;;;;;9.00;3.22;;;11.40;99.90;;;;;;5065409;28;20040;-77
2022/04/13 02:59:52;;;;;;;6.18;2.75;;;11.40;99.90;;;;;;5065228;28;20029;-77
2022/04/13 03:02:18;;;;;;;5.68;2.88;;;11.40;99.90;;;;;;5064689;28;20051;-78
2022/04/13 03:04:46;;;;;;;13.73;3.42;;;11.30;99.90;;;;;;5065098;28;20029;-77
2022/04/13 03:07:13;;;;;;;11.48;3.40;;;11.30;99.90;;;;;;5064639;28;20075;-77
2022/04/13 03:09:39;;;;;;;6.50;3.45;;;11.30;99.90;;;;;;5046513;28;20096;-78
2022/04/13 03:12:09;;;;;;;10.60;3.28;;;11.20;99.90;;;;;;5047176;28;20071;-78
2022/04/13 03:14:36;;;;;;;5.40;3.08;;;11.20;99.90;;;;;;5046966;28;20048;-79
2022/04/13 03:17:02;;;;;;;4.97;2.72;;;11.20;99.90;;;;;;5046767;28;20025;-78
2022/04/13 03:19:27;;;;;;;5.72;3.03;;;11.20;99.90;;;;;;5064880;28;20083;-79
2022/04/13 03:21:54;;;;;;;6.40;2.95;;;11.10;99.90;;;;;;5046932;28;20539;-79
2022/04/13 03:24:24;;;;;;;5.43;2.97;;;11.10;99.90;;;;;;5064191;28;20555;-78
2022/04/13 03:26:50;;;;;;;8.20;3.58;;;11.10;99.90;;;;;;5046610;28;20029;-77
2022/04/13 03:29:16;;;;;;;7.60;3.15;;;11.10;99.90;;;;;;5064379;28;20021;-77
2022/04/13 03:31:42;;;;;;;10.00;3.47;;;11.00;99.90;;;;;;5045734;28;20037;-78
2022/04/13 03:34:08;;;;;;;8.63;2.72;;;11.10;99.90;;;;;;5046619;28;20445;-78
2022/04/13 03:36:39;;;;;;;6.78;3.15;;;11.00;99.90;;;;;;5046408;28;20053;-78
2022/04/13 03:39:07;;;;;;;4.53;2.80;;;11.10;99.90;;;;;;5046810;28;20040;-80
2022/04/13 03:41:37;;;;;;;6.60;2.72;;;11.00;99.90;;;;;;5046845;28;20025;-79
2022/04/13 03:44:08;;;;;;;11.43;3.80;;;11.00;99.90;;;;;;5064535;28;20033;-79
2022/04/13 03:46:34;;;;;;;6.22;3.30;;;11.00;99.90;;;;;;5046925;28;20056;-78
2022/04/13 03:49:00;;;;;;;17.88;3.65;;;11.00;99.90;;;;;;5046073;28;20036;-79
2022/04/13 03:51:26;;;;;;;8.48;2.47;;;10.90;99.90;;;;;;5063979;28;20033;-78
2022/04/13 03:53:53;;;;;;;5.20;3.00;;;10.90;99.90;;;;;;5063754;28;20025;-79
2022/04/13 03:56:18;;;;;;;6.03;3.35;;;10.90;99.90;;;;;;5046885;28;20071;-78
2022/04/13 03:58:44;;;;;;;7.20;3.05;;;10.90;99.90;;;;;;5046947;28;20029;-78
2022/04/13 04:01:10;;;;;;;8.95;3.33;;;10.80;99.90;;;;;;5064728;28;20035;-79
2022/04/13 04:03:37;;;;;;;8.85;3.25;;;10.80;99.90;;;;;;5046425;28;20033;-77
2022/04/13 04:06:03;;;;;;;6.25;2.83;;;10.80;99.90;;;;;;5063734;28;20031;-77
2022/04/13 04:08:31;;;;;;;5.18;3.05;;;10.80;99.90;;;;;;5063989;28;20033;-79
2022/04/13 04:10:57;;;;;;;6.55;2.90;;;10.70;99.90;;;;;;5063946;28;20087;-77
2022/04/13 04:13:24;;;;;;;6.07;3.20;;;10.70;99.90;;;;;;5063961;28;20032;-77
2022/04/13 04:15:50;;;;;;;5.35;3.42;;;10.70;99.90;;;;;;5046430;28;20029;-79
2022/04/13 04:18:15;;;;;;;6.28;3.55;;;10.70;99.90;;;;;;5044846;28;20028;-78
2022/04/13 04:20:41;;;;;;;6.55;3.45;;;10.60;99.90;;;;;;5063688;28;20049;-78
2022/04/13 04:23:07;;;;;;;12.30;3.85;;;10.70;99.90;;;;;;5063467;28;20029;-78
2022/04/13 04:25:33;;;;;;;12.85;3.50;;;10.60;99.90;;;;;;5052133;28;20026;-77
2022/04/13 04:27:59;;;;;;;10.10;4.45;;;10.60;99.90;;;;;;5045575;28;20083;-78
2022/04/13 04:30:25;;;;;;;8.80;3.40;;;10.60;99.90;;;;;;5060894;28;20110;-79
2022/04/13 04:32:51;;;;;;;8.23;3.22;;;10.60;99.90;;;;;;5044502;28;20541;-78
2022/04/13 04:35:17;;;;;;;15.85;3.80;;;10.50;99.90;;;;;;5043990;28;20037;-79
2022/04/13 04:37:42;;;;;;;6.72;3.13;;;10.50;99.90;;;;;;5044342;28;20037;-77
2022/04/13 04:40:08;;;;;;;11.82;4.80;;;10.50;99.90;;;;;;5026188;28;20025;-77
2022/04/13 04:42:47;;;;;;;9.38;4.28;;;10.50;99.90;;;;;;5028029;28;20057;-76
2022/04/13 04:45:19;;;;;;;11.68;4.20;;;10.40;99.90;;;;;;5048726;28;20047;-78
2022/04/13 04:47:45;;;;;;;10.48;3.42;;;10.40;99.90;;;;;;5063262;28;20036;-78
2022/04/13 04:50:11;;;;;;;7.20;3.20;;;10.40;99.90;;;;;;5068683;28;20037;-78
2022/04/13 04:52:41;;;;;;;5.57;3.25;;;10.40;99.90;;;;;;5050356;28;20120;-78
2022/04/13 04:55:08;;;;;;;11.45;3.35;;;10.40;99.90;;;;;;5050464;28;20539;-78
2022/04/13 04:57:34;;;;;;;11.10;3.78;;;10.40;99.90;;;;;;5067827;28;20081;-79
2022/04/13 04:59:59;;;;;;;7.75;3.55;;;10.40;99.90;;;;;;5069191;28;20032;-77
2022/04/13 05:02:28;;;;;;;20.15;4.15;;;10.40;99.90;;;;;;5050541;28;20488;-76
2022/04/13 05:04:53;;;;;;;6.63;3.33;;;10.40;99.90;;;;;;5067246;28;20028;-78
2022/04/13 05:07:19;;;;;;;6.35;3.15;;;10.40;99.90;;;;;;5049864;28;20127;-77
2022/04/13 05:09:45;;;;;;;25.98;3.83;;;10.40;99.90;;;;;;5066958;28;20037;-77
2022/04/13 05:12:11;;;;;;;7.30;3.13;;;10.40;99.90;;;;;;5054236;28;20045;-78
2022/04/13 05:14:37;;;;;;;8.40;3.75;;;10.40;99.90;;;;;;5047509;28;20083;-78
2022/04/13 05:17:02;;;;;;;15.52;4.07;;;10.40;99.90;;;;;;5061697;28;20029;-77
2022/04/13 05:19:29;;;;;;;8.82;3.22;;;10.40;99.90;;;;;;5057809;28;20045;-74
2022/04/13 05:21:56;;;;;;;7.13;3.65;;;10.40;99.90;;;;;;5052786;28;20033;-74
2022/04/13 05:24:22;;;;;;;6.28;3.50;;;10.40;99.90;;;;;;5028865;28;20057;-75
2022/04/13 05:26:47;;;;;;;6.50;3.33;;;10.40;99.90;;;;;;5056156;28;20044;-73
2022/04/13 05:29:13;;;;;;;6.05;3.65;;;10.40;99.90;;;;;;5047324;28;20025;-75
2022/04/13 05:31:39;;;;;;;8.32;3.58;;;10.40;99.90;;;;;;5064468;28;20053;-74
2022/04/13 05:34:11;;;;;;;4.68;2.92;;;10.30;99.90;;;;;;5060441;28;20033;-75
2022/04/13 05:36:37;;;;;;;9.07;4.00;;;10.30;99.90;;;;;;5057451;28;20460;-75
2022/04/13 05:39:03;;;;;;;9.18;3.92;;;10.40;99.90;;;;;;5055787;28;20025;-75
2022/04/13 05:41:28;;;;;;;6.43;2.92;;;10.40;99.90;;;;;;5053683;28;20048;-75
2022/04/13 05:43:55;;;;;;;5.97;2.78;;;10.40;99.90;;;;;;5033483;28;20033;-76
2022/04/13 05:46:22;;;;;;;8.55;3.33;;;10.40;99.90;;;;;;5053069;28;20083;-76
2022/04/13 05:48:47;;;;;;;5.07;2.88;;;10.50;99.90;;;;;;5063021;28;20029;-75
2022/04/13 05:51:13;;;;;;;7.00;3.83;;;10.60;99.90;;;;;;5028309;28;20052;-75
2022/04/13 05:53:39;;;;;;;5.55;3.15;;;10.60;99.90;;;;;;5050881;28;20067;-74
2022/04/13 05:56:05;;;;;;;6.38;3.33;;;10.60;99.90;;;;;;5046921;28;20029;-77
2022/04/13 05:58:31;;;;;;;13.40;4.05;;;10.70;99.90;;;;;;5045464;28;20029;-74
2022/04/13 06:00:57;;;;;;;13.20;3.97;;;10.80;99.90;;;;;;5054746;28;20029;-74
2022/04/13 06:03:23;;;;;;;8.15;4.18;;;10.80;99.90;;;;;;5046977;28;20029;-75
2022/04/13 06:05:50;;;;;;;9.48;3.80;;;10.90;99.90;;;;;;5038419;28;20033;-75
2022/04/13 06:08:16;;;;;;;6.88;3.33;;;11.00;99.90;;;;;;5047604;28;20043;-75
2022/04/13 06:10:42;;;;;;;7.38;3.70;;;11.10;99.90;;;;;;5065837;28;20041;-76
2022/04/13 06:13:08;;;;;;;7.32;3.47;;;11.20;99.90;;;;;;5064974;28;20480;-74
2022/04/13 06:15:33;;;;;;;6.88;3.50;;;11.30;99.90;;;;;;5066449;28;20028;-75
2022/04/13 06:17:59;;;;;;;5.90;2.97;;;11.40;99.90;;;;;;5048765;28;20056;-76
2022/04/13 06:20:26;;;;;;;7.82;3.47;;;11.50;99.90;;;;;;5059687;28;20057;-75
2022/04/13 06:22:55;;;;;;;10.55;3.60;;;11.50;99.90;;;;;;5044085;28;20025;-75
2022/04/13 06:25:21;;;;;;;8.85;3.65;;;11.60;99.90;;;;;;5031516;28;20029;-75
2022/04/13 06:27:47;;;;;;;15.02;4.22;;;11.60;99.90;;;;;;5042665;28;20116;-76
2022/04/13 06:30:13;;;;;;;9.13;3.85;;;11.60;99.90;;;;;;5050726;28;20029;-74
2022/04/13 06:32:44;;;;;;;8.50;3.95;;;11.70;99.90;;;;;;5059216;28;20076;-75
2022/04/13 06:35:11;;;;;;;11.32;3.65;;;11.70;99.90;;;;;;5053411;28;20049;-75
2022/04/13 06:37:41;;;;;;;8.98;4.15;;;11.80;99.90;;;;;;5061529;28;20033;-74
2022/04/13 06:40:08;;;;;;;11.32;4.18;;;11.80;99.90;;;;;;5065224;28;20037;-76
2022/04/13 06:42:38;;;;;;;9.80;3.72;;;11.80;99.90;;;;;;5058182;28;20040;-76
2022/04/13 06:45:10;;;;;;;6.30;3.22;;;11.90;99.90;;;;;;5058436;28;20033;-75
2022/04/13 06:47:38;;;;;;;12.30;4.03;;;12.00;99.90;;;;;;5056618;28;20108;-75
2022/04/13 06:50:05;;;;;;;7.22;4.00;;;12.10;99.90;;;;;;5055884;28;20158;-75
2022/04/13 06:52:35;;;;;;;7.72;3.33;;;12.10;99.90;;;;;;5056150;28;20025;-75
2022/04/13 06:55:01;;;;;;;8.82;3.63;;;12.20;99.90;;;;;;5043679;28;20025;-75
2022/04/13 06:57:27;;;;;;;6.68;3.28;;;12.20;99.90;;;;;;5058551;28;20079;-75
2022/04/13 06:59:53;;;;;;;6.88;3.92;;;12.30;99.90;;;;;;5058220;28;20120;-73
2022/04/13 07:02:19;;;;;;;6.68;3.55;;;12.30;99.90;;;;;;5053830;28;20029;-75
2022/04/13 07:04:44;;;;;;;7.00;3.38;;;12.40;99.90;;;;;;5063932;28;20035;-74
2022/04/13 07:07:10;;;;;;;18.20;4.20;;;12.40;99.90;;;;;;5064374;28;20028;-74
2022/04/13 07:09:36;;;;;;;12.25;3.83;;;12.30;99.90;;;;;;5061908;28;20030;-74
2022/04/13 07:12:02;;;;;;;6.85;3.95;;;12.50;99.90;;;;;;5055265;28;20346;-74
2022/04/13 07:14:29;;;;;;;10.63;4.70;;;12.60;99.90;;;;;;5047208;28;20029;-77
2022/04/13 07:16:55;;;;;;;10.18;3.78;;;12.70;99.90;;;;;;5054600;28;20033;-75
2022/04/13 07:19:21;;;;;;;10.52;3.55;;;12.70;99.90;;;;;;5043460;28;20029;-74
2022/04/13 07:21:50;;;;;;;12.07;4.00;;;12.80;99.90;;;;;;5044234;28;20024;-76
2022/04/13 07:24:16;;;;;;;10.10;3.67;;;12.90;99.90;;;;;;5057427;28;20035;-75
2022/04/13 07:26:41;;;;;;;19.15;3.85;;;12.90;99.90;;;;;;5049279;28;20056;-75
2022/04/13 07:29:07;;;;;;;8.60;3.72;;;12.90;99.90;;;;;;5028006;28;20041;-74
2022/04/13 07:31:33;;;;;;;8.60;3.58;;;13.00;99.90;;;;;;5044390;28;20041;-75
2022/04/13 07:33:58;;;;;;;10.90;4.18;;;13.00;99.90;;;;;;5053187;28;20021;-75
2022/04/13 07:36:26;;;;;;;9.85;4.55;;;13.00;99.90;;;;;;5065092;28;20048;-76
2022/04/13 07:38:51;;;;;;;5.30;3.55;;;13.10;99.90;;;;;;5062258;28;20029;-74
2022/04/13 07:41:17;;;;;;;10.25;3.42;;;13.10;99.90;;;;;;5053183;28;20044;-74
2022/04/13 07:43:45;;;;;;;7.50;3.30;;;13.20;99.90;;;;;;5045277;28;20052;-75
2022/04/13 07:46:13;;;;;;;10.70;3.85;;;13.30;99.90;;;;;;5055968;28;20032;-75
2022/04/13 07:48:38;;;;;;;5.90;3.08;;;13.40;99.90;;;;;;5052540;28;20083;-75
2022/04/13 07:51:04;;;;;;;6.20;3.50;;;13.50;99.90;;;;;;5045352;28;20053;-73
2022/04/13 07:53:29;;;;;;;7.50;3.42;;;13.60;99.90;;;;;;5039727;28;20032;-76
2022/04/13 07:55:55;;;;;;;11.93;4.50;;;13.60;99.90;;;;;;5031154;28;20037;-76
2022/04/13 07:58:21;;;;;;;8.73;4.15;;;13.80;99.90;;;;;;5027062;28;20021;-73
2022/04/13 08:00:46;;;;;;;6.53;3.60;;;13.80;99.90;;;;;;5049053;28;20025;-73
2022/04/13 08:03:12;;;;;;;10.13;3.60;;;13.90;99.90;;;;;;5064480;28;20025;-74
2022/04/13 08:05:38;;;;;;;7.57;4.05;;;14.00;99.90;;;;;;5055912;28;20029;-74
2022/04/13 08:08:04;;;;;;;9.07;4.03;;;14.10;99.90;;;;;;5034762;28;20037;-74
2022/04/13 08:10:30;;;;;;;14.48;4.30;;;14.30;99.90;;;;;;5029040;28;20053;-74
2022/04/13 08:12:56;;;;;;;7.75;3.97;;;14.50;99.90;;;;;;5026772;28;20026;-75
2022/04/13 08:15:21;;;;;;;7.97;3.63;;;14.60;99.90;;;;;;5044189;28;20034;-75
2022/04/13 08:17:47;;;;;;;8.55;4.03;;;14.70;99.90;;;;;;5046033;28;20424;-74
2022/04/13 08:20:14;;;;;;;14.68;4.03;;;14.90;99.90;;;;;;5047523;28;20076;-75
2022/04/13 08:22:41;;;;;;;9.77;4.70;;;15.00;99.90;;;;;;5053453;28;20032;-74
2022/04/13 08:25:07;;;;;;;9.07;4.65;;;15.20;99.90;;;;;;5051642;28;20025;-74
2022/04/13 08:27:33;;;;;;;7.05;3.65;;;15.50;99.90;;;;;;5048318;28;20104;-74
2022/04/13 08:29:59;;;;;;;7.07;3.97;;;15.60;99.90;;;;;;5052556;28;20402;-75
2022/04/13 08:32:25;;;;;;;10.02;4.90;;;15.80;99.90;;;;;;5060865;28;20035;-76
2022/04/13 08:34:52;;;;;;;11.43;5.05;;;15.90;99.90;;;;;;5060890;28;20032;-75
2022/04/13 08:37:26;;;;;;;6.82;3.83;;;16.10;99.90;;;;;;5048376;28;20164;-74
2022/04/13 08:39:52;;;;;;;14.45;5.43;;;16.30;99.90;;;;;;5067138;28;20025;-75
2022/04/13 08:42:37;;;;;;;8.90;4.25;;;16.50;99.90;;;;;;5052107;28;20034;-75
2022/04/13 08:45:23;;;;;;;6.85;3.90;;;16.80;99.90;;;;;;5060509;28;20029;-75
2022/04/13 08:47:56;;;;;;;10.40;4.47;;;17.20;99.90;;;;;;5067023;28;20052;-75
2022/04/13 08:50:27;;;;;;;13.30;4.32;;;17.50;99.90;;;;;;5059539;28;20048;-75
2022/04/13 08:52:58;;;;;;;11.45;4.50;;;17.90;99.90;;;;;;5053368;28;20030;-76
2022/04/13 08:55:29;;;;;;;14.48;4.75;;;18.20;99.90;;;;;;5065599;28;20056;-75
2022/04/13 08:58:13;;;;;;;11.88;4.68;;;18.40;99.90;;;;;;5039949;28;20037;-76
2022/04/13 09:00:50;;;;;;;8.65;4.18;;;18.50;99.90;;;;;;5048723;28;20033;-76
2022/04/13 09:03:36;;;;;;;8.05;4.82;;;18.50;99.90;;;;;;5056547;28;20025;-76
2022/04/13 09:06:04;;;;;;;10.80;4.68;;;18.50;99.90;;;;;;5053814;28;20091;-76
2022/04/13 09:08:39;;;;;;;17.13;4.75;;;18.40;99.90;;;;;;5034822;28;20033;-76
2022/04/13 09:11:05;;;;;;;10.07;4.30;;;18.40;99.90;;;;;;5038274;28;20065;-76
2022/04/13 09:13:35;;;;;;;13.07;4.72;;;18.30;99.90;;;;;;5041487;28;20066;-77
2022/04/13 09:16:03;;;;;;;11.68;3.97;;;18.30;99.90;;;;;;5046775;28;20029;-76
2022/04/13 09:18:30;;;;;;;10.32;4.13;;;18.20;99.90;;;;;;5062530;28;20074;-77
2022/04/13 09:21:00;;;;;;;11.07;4.07;;;18.30;99.90;;;;;;5065826;28;20053;-77
2022/04/13 09:23:27;;;;;;;9.32;4.45;;;18.40;99.90;;;;;;5058482;28;20064;-77
2022/04/13 09:26:02;;;;;;;9.65;3.95;;;18.80;99.90;;;;;;5028055;28;20488;-78
2022/04/13 09:28:27;;;;;;;6.63;3.80;;;19.00;99.90;;;;;;5046999;28;20089;-76
2022/04/13 09:30:55;;;;;;;8.95;4.75;;;19.30;99.90;;;;;;5046998;28;20037;-76
2022/04/13 09:33:23;;;;;;;8.68;4.00;;;19.50;99.90;;;;;;5053060;28;20037;-77
2022/04/13 09:35:49;;;;;;;8.10;3.70;;;19.70;99.90;;;;;;5067464;28;20024;-77
2022/04/13 09:38:16;;;;;;;7.88;4.00;;;19.90;99.90;;;;;;5054380;28;20029;-76
2022/04/13 09:40:42;;;;;;;16.40;4.45;;;20.00;99.90;;;;;;5060333;28;20017;-77
2022/04/13 09:43:09;;;;;;;16.40;3.95;;;20.20;99.90;;;;;;5061255;28;20048;-75
2022/04/13 09:45:39;;;;;;;6.88;3.67;;;20.40;99.90;;;;;;5046806;28;20053;-77
2022/04/13 09:48:05;;;;;;;6.05;3.78;;;20.30;99.90;;;;;;5048362;28;20036;-75
2022/04/13 09:50:32;;;;;;;12.07;3.83;;;20.40;99.90;;;;;;5065439;28;20045;-76
2022/04/13 09:53:05;;;;;;;8.20;3.50;;;20.50;99.90;;;;;;5065467;28;20036;-77
2022/04/13 09:55:41;;;;;;;10.85;4.28;;;20.60;99.90;;;;;;5055806;28;20493;-78
2022/04/13 09:58:17;;;;;;;11.40;4.15;;;20.60;99.90;;;;;;5045833;28;20040;-76
2022/04/13 10:00:44;;;;;;;11.70;3.53;;;20.60;99.90;;;;;;5043054;28;20885;-76
2022/04/13 10:03:13;;;;;;;8.50;3.83;;;20.70;99.90;;;;;;5045123;28;20033;-78
2022/04/13 10:05:46;;;;;;;12.35;4.20;;;20.70;99.90;;;;;;5045197;28;20025;-77
2022/04/13 10:08:14;;;;;;;9.27;4.03;;;20.80;99.90;;;;;;5039635;28;20036;-75
2022/04/13 10:10:41;;;;;;;19.77;4.32;;;21.00;99.90;;;;;;5065546;28;20043;-76
2022/04/13 10:13:07;;;;;;;9.75;4.50;;;21.20;99.90;;;;;;5047836;28;20451;-76
2022/04/13 10:15:32;;;;;;;15.95;4.53;;;21.40;99.90;;;;;;5048198;28;20025;-76
2022/04/13 10:18:00;;;;;;;12.82;4.63;;;21.60;99.90;;;;;;5056461;28;20056;-78
2022/04/13 10:20:43;;;;;;;9.48;3.55;;;21.90;99.90;;;;;;5047065;28;20045;-77
2022/04/13 10:23:15;;;;;;;11.17;4.23;;;22.10;99.90;;;;;;5057267;28;20033;-75
2022/04/13 10:25:44;;;;;;;12.73;5.03;;;22.10;99.90;;;;;;5054102;28;20063;-77
2022/04/13 10:28:12;;;;;;;9.30;4.28;;;22.00;99.90;;;;;;5044557;28;20030;-75
2022/04/13 10:30:42;;;;;;;11.50;4.05;;;21.90;99.90;;;;;;5056918;28;20044;-74
2022/04/13 10:33:12;;;;;;;30.90;4.38;;;22.00;99.90;;;;;;5064415;28;20029;-77
2022/04/13 10:35:47;;;;;;;9.15;4.57;;;22.20;99.90;;;;;;5043481;28;20108;-76
2022/04/13 10:38:12;;;;;;;11.95;4.32;;;22.40;99.90;;;;;;5062847;28;20116;-75
2022/04/13 10:40:41;;;;;;;9.35;4.10;;;22.50;99.90;;;;;;5050671;28;20036;-77
2022/04/13 10:43:11;;;;;;;6.82;3.85;;;22.70;99.90;;;;;;5054938;28;20032;-76
2022/04/13 10:45:45;;;;;;;8.32;4.40;;;22.90;99.90;;;;;;5065116;28;20029;-76
2022/04/13 10:48:21;;;;;;;18.42;4.38;;;23.10;99.90;;;;;;5065629;28;20094;-78
2022/04/13 10:51:16;;;;;;;10.55;4.70;;;23.40;99.90;;;;;;5063895;28;20060;-75
2022/04/13 10:53:53;;;;;;;10.45;4.22;;;23.50;99.90;;;;;;5050197;28;20037;-77
2022/04/13 10:56:20;;;;;;;12.38;4.40;;;23.60;99.90;;;;;;5046172;28;20112;-76
2022/04/13 10:59:15;;;;;;;13.18;4.68;;;23.60;99.90;;;;;;5047113;28;20448;-75
2022/04/13 11:01:51;;;;;;;8.18;4.75;;;23.70;99.90;;;;;;5061683;28;20033;-75
2022/04/13 11:04:17;;;;;;;10.65;4.35;;;24.00;99.90;;;;;;5064871;28;20044;-76
2022/04/13 11:06:44;;;;;;;11.15;4.90;;;24.10;99.90;;;;;;5064900;28;20029;-76
2022/04/13 11:09:17;;;;;;;14.60;4.90;;;24.40;99.90;;;;;;5047029;28;20056;-77
2022/04/13 11:11:44;;;;;;;13.07;6.00;;;24.50;99.90;;;;;;5065208;28;20051;-77
2022/04/13 11:14:18;;;;;;;14.82;5.40;;;24.50;99.90;;;;;;5065508;28;20259;-76
2022/04/13 11:16:44;;;;;;;9.95;5.13;;;24.60;99.90;;;;;;5040404;28;20041;-77
2022/04/13 11:19:10;;;;;;;13.43;4.93;;;24.60;99.90;;;;;;5044818;28;20489;-77
2022/04/13 11:21:58;;;;;;;13.75;5.80;;;24.50;99.90;;;;;;5045404;28;20047;-78
2022/04/13 11:24:34;;;;;;;12.65;4.82;;;24.40;99.90;;;;;;5026968;28;20037;-78
2022/04/13 11:27:01;;;;;;;8.02;4.63;;;24.40;99.90;;;;;;5045046;28;20045;-76
2022/04/13 11:29:39;;;;;;;12.43;4.90;;;24.40;99.90;;;;;;5027128;28;20108;-77
2022/04/13 11:32:09;;;;;;;10.35;4.80;;;24.20;99.90;;;;;;5044596;28;20057;-76
2022/04/13 11:34:43;;;;;;;9.80;4.82;;;24.00;99.90;;;;;;5045385;28;20029;-76
2022/04/13 11:37:13;;;;;;;10.32;5.57;;;24.00;99.90;;;;;;5044671;28;20381;-77
2022/04/13 11:39:57;;;;;;;15.82;4.47;;;24.00;99.90;;;;;;5044937;28;20462;-76
2022/04/13 11:42:26;;;;;;;19.10;5.88;;;23.80;99.90;;;;;;5045200;28;20028;-77
2022/04/13 11:45:13;;;;;;;7.38;4.25;;;23.90;99.90;;;;;;5044641;28;20405;-76
2022/04/13 11:47:54;;;;;;;10.30;5.20;;;24.10;99.90;;;;;;5043088;28;20075;-75
2022/04/13 11:50:24;;;;;;;18.15;5.25;;;24.30;99.90;;;;;;5043031;28;20444;-76
2022/04/13 11:53:05;;;;;;;10.27;5.55;;;24.60;99.90;;;;;;5037195;28;20495;-75
2022/04/13 11:55:42;;;;;;;21.65;5.97;;;24.90;99.90;;;;;;5064014;28;20051;-76
2022/04/13 11:58:08;;;;;;;14.43;5.95;;;25.20;99.90;;;;;;5044729;28;20029;-76
2022/04/13 12:00:41;;;;;;;11.82;5.28;;;25.30;99.90;;;;;;5049883;28;20477;-76
2022/04/13 12:03:10;;;;;;;13.98;4.75;;;25.40;99.90;;;;;;5030773;28;20048;-77
2022/04/13 12:05:39;;;;;;;10.27;4.30;;;25.60;99.90;;;;;;5057363;28;20028;-74
2022/04/13 12:08:12;;;;;;;10.57;4.05;;;25.70;99.90;;;;;;5064113;28;20028;-75
2022/04/13 12:10:38;;;;;;;16.75;5.30;;;26.10;99.90;;;;;;5046071;28;20037;-76
2022/04/13 12:13:04;;;;;;;14.20;5.60;;;26.50;99.90;;;;;;5056467;28;20049;-76
2022/04/13 12:15:45;;;;;;;12.95;5.18;;;26.80;99.90;;;;;;5026564;28;20029;-74
2022/04/13 12:18:11;;;;;;;11.98;4.55;;;27.10;99.90;;;;;;5044030;28;20049;-74
2022/04/13 12:20:37;;;;;;;15.05;4.78;;;27.10;99.90;;;;;;5026029;28;20049;-76
2022/04/13 12:23:17;;;;;;;10.15;4.13;;;27.20;99.90;;;;;;5026655;28;20040;-75
2022/04/13 12:25:44;;;;;;;11.60;4.57;;;27.30;99.90;;;;;;5043625;28;20029;-74
2022/04/13 12:28:09;;;;;;;9.63;3.95;;;27.30;99.90;;;;;;5044458;28;20099;-76
2022/04/13 12:30:35;;;;;;;7.97;4.50;;;27.20;99.90;;;;;;5026113;28;20057;-76
2022/04/13 12:33:13;;;;;;;8.13;3.72;;;27.00;99.90;;;;;;5026291;28;20033;-78
2022/04/13 12:35:58;;;;;;;10.90;3.92;;;26.80;99.90;;;;;;5044349;28;20124;-75
2022/04/13 12:38:36;;;;;;;9.57;3.47;;;26.90;99.90;;;;;;5044199;28;20033;-77
2022/04/13 12:41:04;;;;;;;9.02;3.55;;;26.90;99.90;;;;;;5026336;28;20091;-75
2022/04/13 12:43:29;;;;;;;11.27;3.78;;;26.70;99.90;;;;;;5026207;28;20032;-73
2022/04/13 12:45:56;;;;;;;6.88;3.50;;;26.80;99.90;;;;;;5043966;28;20034;-74
2022/04/13 12:48:28;;;;;;;5.38;2.58;;;27.10;99.90;;;;;;5026560;28;20834;-75